< < Back
Terminal Aerodrome Forecast


Current Version              Previous Versions:   1  2  3  4  5  6  7  8  9  

Terminal Aerodrome Forecast

423
FTUS42 KGSP 162320
TAFGSP
TAF
KGSP 162320Z 1700/1724 32005KT P6SM FEW250
      TEMPO 1700/1702 25005KT SCT050
     FM170900 VRB03KT 4SM BR FEW250
     FM171300 32005KT P6SM SCT250
     FM171800 28005KT P6SM SCT250=



Latest METAR

271
SAUS70 KWBC 180200 RRA
MTRGSP
METAR KGSP 180153Z 32003KT 10SM CLR 08/03 A3009 RMK AO2 SLP190
T00830028


USA.gov is the U.S. government's official web portal to all federal, state and local government web resources and services.